Shanwei, China
Current Conditions -  °F | °C
As of 4:00 AM on Tuesday 23 Dec 2014 (Local Time) from ZGOW Reporting Station
Broken Clouds Broken Clouds  
Wind Chill: 52°   Ceiling: 4000
Heat Index: 52°   Visibility: 4mi
Dew Point: 41°   Wind: 4mph
Humidity: 67%   Direction: 20°NNE
Pressure: 30.21"   Gusts: NA
Location:  22.78°N, 115.35°E
Report Text: ZGOW 222000Z 02002MPS 7000 BKN040 11/05 Q1023 NOSIG
Loading
Personal Weather Stations






























Interactive Weather Map New forecast layout! Learn more

10-Day Weather Forecast

Advertisements
Track Severe Weather on mobile